createdAt,value
2018-06-30T00:02:23.356Z,99.90
2018-06-30T00:04:52.931Z,99.90
2018-06-30T00:07:22.744Z,99.90
2018-06-30T00:09:51.254Z,99.90
2018-06-30T00:12:19.800Z,99.90
2018-06-30T00:14:48.295Z,99.90
2018-06-30T00:17:16.772Z,99.90
2018-06-30T00:19:45.244Z,99.90
2018-06-30T00:22:13.767Z,99.90
2018-06-30T00:24:42.329Z,99.90
2018-06-30T00:27:16.062Z,99.90
2018-06-30T00:29:44.556Z,99.90
2018-06-30T00:32:13.151Z,99.90
2018-06-30T00:34:41.663Z,99.90
2018-06-30T00:37:10.158Z,99.90
2018-06-30T00:39:38.879Z,99.90
2018-06-30T00:42:07.363Z,99.90
2018-06-30T00:44:36.406Z,99.90
2018-06-30T00:47:04.949Z,99.90
2018-06-30T00:49:33.410Z,99.90
2018-06-30T00:52:01.910Z,99.90
2018-06-30T00:54:30.360Z,99.90
2018-06-30T00:56:58.866Z,99.90
2018-06-30T00:59:27.397Z,99.90
2018-06-30T01:01:55.922Z,99.90
2018-06-30T01:04:24.402Z,99.90
2018-06-30T01:06:52.944Z,99.90
2018-06-30T01:09:21.409Z,99.90
2018-06-30T01:11:49.854Z,99.90
2018-06-30T01:14:18.327Z,99.90
2018-06-30T01:16:46.822Z,99.90
2018-06-30T01:19:15.313Z,99.90
2018-06-30T01:21:43.790Z,99.90
2018-06-30T01:24:12.263Z,99.90
2018-06-30T01:26:41.125Z,99.90
2018-06-30T01:29:09.587Z,99.90
2018-06-30T01:31:38.042Z,99.90
2018-06-30T01:34:06.629Z,99.90
2018-06-30T01:36:35.177Z,99.90
2018-06-30T01:39:04.787Z,99.90
2018-06-30T01:41:33.233Z,99.90
2018-06-30T01:44:01.740Z,99.90
2018-06-30T01:46:30.206Z,99.90
2018-06-30T01:51:26.857Z,99.90
2018-06-30T01:53:55.356Z,99.90
2018-06-30T01:56:23.881Z,99.90
2018-06-30T01:58:52.357Z,99.90
2018-06-30T02:01:20.845Z,99.90
2018-06-30T02:03:49.320Z,99.90
2018-06-30T02:06:17.826Z,99.90
2018-06-30T02:08:46.282Z,99.90
2018-06-30T02:11:14.751Z,99.90
2018-06-30T02:13:43.229Z,99.90
2018-06-30T02:16:11.713Z,99.90
2018-06-30T02:18:40.238Z,99.90
2018-06-30T02:21:08.750Z,99.90
2018-06-30T02:23:37.236Z,99.90
2018-06-30T02:26:05.739Z,99.90
2018-06-30T02:28:34.230Z,99.90
2018-06-30T02:31:02.702Z,99.90
2018-06-30T02:33:31.157Z,99.90
2018-06-30T02:35:59.619Z,99.90
2018-06-30T02:38:28.105Z,99.90
2018-06-30T02:40:56.561Z,99.90
2018-06-30T02:43:25.106Z,99.90
2018-06-30T02:45:53.676Z,99.90
2018-06-30T02:48:22.082Z,99.90
2018-06-30T02:50:50.553Z,99.90
2018-06-30T02:53:19.881Z,99.90
2018-06-30T02:55:48.326Z,99.90
2018-06-30T02:58:16.807Z,99.90
2018-06-30T03:00:45.279Z,99.90
2018-06-30T03:03:13.733Z,99.90
2018-06-30T03:05:42.195Z,99.90
2018-06-30T03:08:10.663Z,99.90
2018-06-30T03:10:39.137Z,99.90
2018-06-30T03:13:07.629Z,99.90
2018-06-30T03:18:04.329Z,99.90
2018-06-30T03:20:32.818Z,99.90
2018-06-30T03:23:01.283Z,99.90
2018-06-30T03:25:29.749Z,99.90
2018-06-30T03:27:58.244Z,99.90
2018-06-30T03:30:26.694Z,99.90
2018-06-30T03:32:55.152Z,99.90
2018-06-30T03:35:23.629Z,99.90
2018-06-30T03:37:52.083Z,99.90
2018-06-30T03:40:20.541Z,99.90
2018-06-30T03:42:49.005Z,99.90
2018-06-30T03:45:17.453Z,99.90
2018-06-30T03:47:45.925Z,99.90
2018-06-30T03:50:14.406Z,99.90
2018-06-30T03:52:42.861Z,99.90
2018-06-30T03:55:11.314Z,99.90
2018-06-30T03:57:39.814Z,99.90
2018-06-30T04:00:08.334Z,99.90
2018-06-30T04:02:36.781Z,99.90
2018-06-30T04:05:05.501Z,99.90
2018-06-30T04:07:33.941Z,99.90
2018-06-30T04:10:02.410Z,99.90
2018-06-30T04:12:30.848Z,99.90
2018-06-30T04:14:59.294Z,99.90
2018-06-30T04:17:27.829Z,99.90
2018-06-30T04:19:56.309Z,99.90
2018-06-30T04:22:24.749Z,99.90
2018-06-30T04:24:53.334Z,99.90
2018-06-30T04:27:22.029Z,99.90
2018-06-30T04:29:50.529Z,99.90
2018-06-30T04:32:19.068Z,99.90
2018-06-30T04:34:47.546Z,99.90
2018-06-30T04:37:16.013Z,99.90
2018-06-30T04:39:44.462Z,99.90
2018-06-30T04:42:12.918Z,99.90
2018-06-30T04:44:41.344Z,99.90
2018-06-30T04:47:09.778Z,99.90
2018-06-30T04:49:38.278Z,99.90
2018-06-30T04:52:06.977Z,99.90
2018-06-30T04:54:35.396Z,99.90
2018-06-30T04:57:03.831Z,99.90
2018-06-30T04:59:32.304Z,99.90
2018-06-30T05:02:00.798Z,99.90
2018-06-30T05:04:29.270Z,99.90
2018-06-30T05:06:57.778Z,99.90
2018-06-30T05:09:26.211Z,99.90
2018-06-30T05:11:54.691Z,99.90
2018-06-30T05:14:23.150Z,99.90
2018-06-30T05:16:52.190Z,99.90
2018-06-30T05:19:20.627Z,99.90
2018-06-30T05:21:49.043Z,99.90
2018-06-30T05:24:17.482Z,99.90
2018-06-30T05:29:14.084Z,98.60
2018-06-30T05:31:42.513Z,99.90
2018-06-30T05:34:10.937Z,98.00
2018-06-30T05:36:39.857Z,95.70
2018-06-30T05:39:08.643Z,91.30
2018-06-30T05:41:41.291Z,87.60
2018-06-30T05:44:09.713Z,89.00
2018-06-30T05:46:38.175Z,90.10
2018-06-30T05:49:06.601Z,91.30
2018-06-30T05:51:35.053Z,86.80
2018-06-30T05:54:03.530Z,83.40
2018-06-30T05:56:32.025Z,85.40
2018-06-30T05:59:00.490Z,88.10
2018-06-30T06:01:33.002Z,79.90
2018-06-30T06:04:01.465Z,76.40
2018-06-30T06:06:31.904Z,75.20
2018-06-30T06:09:02.244Z,74.20
2018-06-30T06:11:32.474Z,74.60
2018-06-30T06:14:01.057Z,74.20
2018-06-30T06:16:30.847Z,72.10
2018-06-30T06:19:00.100Z,72.80
2018-06-30T06:23:59.191Z,67.50
2018-06-30T06:26:28.516Z,67.60
2018-06-30T06:28:58.491Z,66.40
2018-06-30T06:31:27.008Z,66.20
2018-06-30T06:33:55.490Z,64.90
2018-06-30T06:36:23.931Z,65.70
2018-06-30T06:38:52.435Z,66.30
2018-06-30T06:41:20.965Z,63.00
2018-06-30T06:43:49.371Z,62.60
2018-06-30T06:46:17.818Z,58.60
2018-06-30T06:48:46.286Z,57.20
2018-06-30T06:51:14.761Z,58.00
2018-06-30T06:53:43.239Z,57.00
2018-06-30T06:56:11.715Z,55.60
2018-06-30T06:58:40.221Z,56.20
2018-06-30T07:03:36.823Z,52.40
2018-06-30T07:06:05.546Z,53.00
2018-06-30T07:08:33.994Z,52.70
2018-06-30T07:11:16.738Z,52.10
2018-06-30T07:13:45.162Z,51.40
2018-06-30T07:16:13.641Z,50.40
2018-06-30T07:18:42.106Z,49.30
2018-06-30T07:21:10.598Z,50.20
2018-06-30T07:23:39.070Z,49.80
2018-06-30T07:26:07.870Z,49.80
2018-06-30T07:28:36.342Z,47.60
2018-06-30T07:31:04.870Z,48.40
2018-06-30T07:33:33.309Z,49.20
2018-06-30T07:36:01.742Z,48.80
2018-06-30T07:38:30.217Z,49.00
2018-06-30T07:40:58.679Z,49.20
2018-06-30T07:43:27.148Z,48.30
2018-06-30T07:45:55.588Z,46.70
2018-06-30T07:48:24.030Z,47.80
2018-06-30T07:50:52.486Z,47.40
2018-06-30T07:53:20.930Z,48.20
2018-06-30T07:55:50.249Z,46.00
2018-06-30T07:58:18.741Z,46.70
2018-06-30T08:00:47.201Z,45.50
2018-06-30T08:03:15.651Z,46.10
2018-06-30T08:05:44.114Z,45.60
2018-06-30T08:08:12.547Z,44.50
2018-06-30T08:10:41.086Z,44.40
2018-06-30T08:13:10.078Z,45.00
2018-06-30T08:15:38.523Z,44.90
2018-06-30T08:18:07.052Z,42.90
2018-06-30T08:20:35.625Z,43.80
2018-06-30T08:24:36.753Z,42.80
2018-06-30T08:27:05.337Z,42.40
2018-06-30T08:29:34.375Z,43.30
2018-06-30T08:32:02.877Z,41.80
2018-06-30T08:34:31.334Z,41.80
2018-06-30T08:36:59.801Z,42.40
2018-06-30T08:39:28.383Z,41.70
2018-06-30T08:41:56.821Z,41.60
2018-06-30T08:44:25.279Z,43.00
2018-06-30T08:46:53.881Z,42.30
2018-06-30T08:49:22.337Z,41.50
2018-06-30T08:51:50.782Z,40.60
2018-06-30T08:54:19.238Z,40.30
2018-06-30T08:56:47.728Z,42.40
2018-06-30T08:59:16.184Z,41.60
2018-06-30T09:01:44.659Z,41.90
2018-06-30T09:04:13.086Z,42.50
2018-06-30T09:06:41.590Z,42.40
2018-06-30T09:09:11.000Z,42.30
2018-06-30T09:11:39.605Z,43.10
2018-06-30T09:14:08.452Z,41.60
2018-06-30T09:16:36.902Z,40.90
2018-06-30T09:19:05.573Z,40.20
2018-06-30T09:21:34.002Z,42.50
2018-06-30T09:24:02.509Z,42.40
2018-06-30T09:26:37.399Z,43.70
2018-06-30T09:29:07.078Z,43.40
2018-06-30T09:31:36.924Z,44.30
2018-06-30T09:34:06.072Z,45.40
2018-06-30T09:36:34.984Z,44.50
2018-06-30T09:39:03.582Z,43.80
2018-06-30T09:44:00.178Z,41.30
2018-06-30T09:46:28.744Z,39.50
2018-06-30T09:48:57.223Z,38.30
2018-06-30T09:51:25.681Z,40.10
2018-06-30T09:53:54.117Z,40.20
2018-06-30T09:56:22.614Z,40.10
2018-06-30T09:58:52.775Z,40.30
2018-06-30T10:01:21.267Z,37.40
2018-06-30T10:03:49.835Z,37.40
2018-06-30T10:06:18.325Z,38.20
2018-06-30T10:08:46.778Z,37.40
2018-06-30T10:11:15.221Z,37.90
2018-06-30T10:13:43.670Z,36.50
2018-06-30T10:16:12.140Z,35.20
2018-06-30T10:18:40.667Z,34.90
2018-06-30T10:21:09.187Z,34.90
2018-06-30T10:23:37.632Z,36.00
2018-06-30T10:26:06.097Z,36.30
2018-06-30T10:28:34.552Z,37.40
2018-06-30T10:31:03.050Z,37.00
2018-06-30T10:33:31.506Z,37.40
2018-06-30T10:35:59.933Z,37.20
2018-06-30T10:38:28.403Z,38.30
2018-06-30T10:40:56.863Z,40.50
2018-06-30T10:43:25.301Z,42.00
2018-06-30T10:45:53.767Z,42.50
2018-06-30T10:48:22.234Z,43.40
2018-06-30T10:50:50.670Z,43.30
2018-06-30T10:53:19.119Z,44.40
2018-06-30T10:55:47.586Z,44.80
2018-06-30T10:58:16.074Z,44.10
2018-06-30T11:00:44.497Z,44.00
2018-06-30T11:03:12.941Z,44.00
2018-06-30T11:05:41.433Z,45.20
2018-06-30T11:08:09.894Z,43.20
2018-06-30T11:10:38.349Z,40.50
2018-06-30T11:13:06.838Z,42.00
2018-06-30T11:15:35.300Z,39.60
2018-06-30T11:18:03.754Z,39.60
2018-06-30T11:20:32.211Z,38.60
2018-06-30T11:23:00.678Z,37.80
2018-06-30T11:25:30.124Z,36.70
2018-06-30T11:27:58.709Z,37.60
2018-06-30T11:30:27.144Z,37.50
2018-06-30T11:32:56.633Z,38.50
2018-06-30T11:35:25.129Z,39.10
2018-06-30T11:37:53.584Z,41.40
2018-06-30T11:40:23.407Z,41.50
2018-06-30T11:42:52.955Z,41.40
2018-06-30T11:45:21.404Z,39.40
2018-06-30T11:47:50.118Z,39.30
2018-06-30T11:50:18.630Z,39.80
2018-06-30T11:52:47.076Z,38.60
2018-06-30T11:55:15.522Z,38.20
2018-06-30T11:57:44.027Z,38.20
2018-06-30T12:00:12.481Z,38.30
2018-06-30T12:02:40.948Z,38.10
2018-06-30T12:05:09.480Z,39.40
2018-06-30T12:07:37.938Z,40.80
2018-06-30T12:10:07.741Z,41.20
2018-06-30T12:12:36.810Z,41.70
2018-06-30T12:15:05.390Z,41.60
2018-06-30T12:17:33.882Z,41.30
2018-06-30T12:20:02.367Z,42.20
2018-06-30T12:22:30.990Z,42.30
2018-06-30T12:24:59.518Z,41.50
2018-06-30T12:27:28.010Z,42.50
2018-06-30T12:29:56.486Z,42.10
2018-06-30T12:32:25.158Z,40.80
2018-06-30T12:34:53.531Z,42.00
2018-06-30T12:37:21.985Z,40.90
2018-06-30T12:39:50.412Z,41.60
2018-06-30T12:42:18.875Z,39.90
2018-06-30T12:44:47.347Z,40.20
2018-06-30T12:47:16.277Z,39.90
2018-06-30T12:49:45.091Z,39.70
2018-06-30T12:52:13.718Z,39.70
2018-06-30T12:54:42.536Z,39.60
2018-06-30T12:57:10.957Z,39.10
2018-06-30T12:59:39.518Z,38.70
2018-06-30T13:02:09.953Z,40.10
2018-06-30T13:07:09.510Z,38.60
2018-06-30T13:09:38.724Z,39.70
2018-06-30T13:12:08.547Z,38.70
2018-06-30T13:14:39.231Z,39.00
2018-06-30T13:17:08.380Z,38.30
2018-06-30T13:19:37.318Z,39.10
2018-06-30T13:22:08.113Z,39.50
2018-06-30T13:24:38.154Z,39.10
2018-06-30T13:27:07.767Z,39.60
2018-06-30T13:29:37.425Z,39.00
2018-06-30T13:32:09.302Z,39.70
2018-06-30T13:34:39.015Z,39.90
2018-06-30T13:37:10.864Z,41.20
2018-06-30T13:39:41.541Z,40.20
2018-06-30T13:42:10.688Z,39.80
2018-06-30T13:44:39.703Z,39.40
2018-06-30T13:47:10.673Z,39.60
2018-06-30T13:49:40.285Z,38.50
2018-06-30T13:52:10.221Z,39.40
2018-06-30T13:54:41.023Z,39.40
2018-06-30T13:57:13.711Z,39.10
2018-06-30T13:59:45.322Z,38.90
2018-06-30T14:02:15.676Z,39.40
2018-06-30T14:04:44.750Z,41.10
2018-06-30T14:07:13.688Z,39.70
2018-06-30T14:09:43.326Z,39.60
2018-06-30T14:12:13.276Z,37.70
2018-06-30T14:14:44.002Z,37.80
2018-06-30T14:17:14.728Z,38.30
2018-06-30T14:19:48.544Z,39.10
2018-06-30T14:22:18.917Z,37.40
2018-06-30T14:24:49.790Z,39.10
2018-06-30T14:27:21.251Z,38.70
2018-06-30T14:29:50.049Z,38.00
2018-06-30T14:32:19.030Z,38.40
2018-06-30T14:34:51.449Z,39.70
2018-06-30T14:37:20.434Z,39.10
2018-06-30T14:39:49.407Z,39.00
2018-06-30T14:42:19.232Z,38.30
2018-06-30T14:44:52.194Z,38.00
2018-06-30T14:47:23.687Z,37.70
2018-06-30T14:49:54.222Z,38.80
2018-06-30T14:52:24.445Z,38.10
2018-06-30T14:54:54.782Z,38.40
2018-06-30T14:57:23.613Z,38.20
2018-06-30T14:59:52.384Z,38.50
2018-06-30T15:02:22.316Z,37.50
2018-06-30T15:04:51.925Z,38.20
2018-06-30T15:07:22.228Z,37.70
2018-06-30T15:09:52.959Z,37.90
2018-06-30T15:12:24.094Z,37.10
2018-06-30T15:14:55.506Z,37.60
2018-06-30T15:19:56.243Z,37.90
2018-06-30T15:22:25.515Z,38.10
2018-06-30T15:24:54.532Z,38.20
2018-06-30T15:27:25.107Z,38.10
2018-06-30T15:29:57.422Z,37.20
2018-06-30T15:32:30.357Z,38.40
2018-06-30T15:35:01.302Z,37.30
2018-06-30T15:37:29.747Z,37.50
2018-06-30T15:39:58.960Z,37.20
2018-06-30T15:42:28.694Z,38.10
2018-06-30T15:44:57.297Z,36.20
2018-06-30T15:47:26.653Z,36.00
2018-06-30T15:49:55.791Z,36.80
2018-06-30T15:54:52.485Z,36.80
2018-06-30T15:57:20.935Z,36.90
2018-06-30T16:02:17.506Z,35.50
2018-06-30T16:04:46.348Z,35.20
2018-06-30T16:07:14.853Z,36.40
2018-06-30T16:09:46.182Z,35.00
2018-06-30T16:12:14.754Z,36.30
2018-06-30T16:14:43.241Z,34.50
2018-06-30T16:17:12.468Z,35.40
2018-06-30T16:19:40.895Z,34.10
2018-06-30T16:22:09.323Z,34.20
2018-06-30T16:24:37.781Z,33.70
2018-06-30T16:27:06.301Z,33.80
2018-06-30T16:29:35.693Z,33.60
2018-06-30T16:32:06.093Z,34.30
2018-06-30T16:34:34.649Z,33.50
2018-06-30T16:37:03.139Z,33.90
2018-06-30T16:39:32.772Z,32.70
2018-06-30T16:42:02.419Z,33.30
2018-06-30T16:44:30.965Z,32.80
2018-06-30T16:46:59.427Z,32.80
2018-06-30T16:49:27.855Z,32.60
2018-06-30T16:51:56.305Z,33.10
2018-06-30T16:54:24.813Z,33.30
2018-06-30T16:56:53.406Z,32.90
2018-06-30T16:59:23.070Z,33.40
2018-06-30T17:01:51.505Z,33.00
2018-06-30T17:04:21.767Z,32.20
2018-06-30T17:06:50.409Z,32.90
2018-06-30T17:09:18.952Z,33.30
2018-06-30T17:11:47.805Z,32.60
2018-06-30T17:14:16.266Z,33.60
2018-06-30T17:16:44.798Z,32.30
2018-06-30T17:19:14.193Z,33.00
2018-06-30T17:21:43.446Z,31.70
2018-06-30T17:24:11.903Z,32.30
2018-06-30T17:26:40.963Z,32.20
2018-06-30T17:29:09.415Z,32.90
2018-06-30T17:31:38.107Z,32.40
2018-06-30T17:34:06.988Z,33.20
2018-06-30T17:36:36.260Z,33.60
2018-06-30T17:39:07.866Z,33.80
2018-06-30T17:41:36.494Z,32.10
2018-06-30T17:44:04.962Z,32.40
2018-06-30T17:46:33.767Z,32.80
2018-06-30T17:49:02.727Z,33.20
2018-06-30T17:51:32.239Z,33.40
2018-06-30T17:54:05.888Z,33.60
2018-06-30T17:56:34.670Z,32.80
2018-06-30T17:59:03.274Z,33.80
2018-06-30T18:01:32.557Z,33.30
2018-06-30T18:04:01.818Z,32.90
2018-06-30T18:06:31.145Z,33.20
2018-06-30T18:09:00.521Z,33.20
2018-06-30T18:11:29.842Z,32.90
2018-06-30T18:13:59.170Z,33.00
2018-06-30T18:16:28.388Z,33.50
2018-06-30T18:18:57.458Z,33.00
2018-06-30T18:21:26.779Z,33.00
2018-06-30T18:23:56.087Z,32.60
2018-06-30T18:26:25.348Z,32.60
2018-06-30T18:28:54.473Z,32.50
2018-06-30T18:31:23.716Z,32.70
2018-06-30T18:33:53.015Z,32.50
2018-06-30T18:36:22.257Z,33.70
2018-06-30T18:38:51.569Z,33.30
2018-06-30T18:41:20.722Z,33.10
2018-06-30T18:43:49.373Z,33.50
2018-06-30T18:46:18.026Z,33.40
2018-06-30T18:48:47.000Z,33.90
2018-06-30T18:51:15.825Z,34.00
2018-06-30T18:53:44.388Z,33.70
2018-06-30T18:56:14.075Z,33.80
2018-06-30T18:58:43.098Z,33.90
2018-06-30T19:01:12.103Z,34.10
2018-06-30T19:03:40.994Z,34.90
2018-06-30T19:06:09.802Z,34.10
2018-06-30T19:08:38.323Z,34.70
2018-06-30T19:11:07.129Z,33.70
2018-06-30T19:13:35.749Z,34.30
2018-06-30T19:16:04.310Z,34.90
2018-06-30T19:18:32.769Z,34.10
2018-06-30T19:21:01.600Z,35.30
2018-06-30T19:23:30.210Z,34.90
2018-06-30T19:25:58.647Z,35.40
2018-06-30T19:28:27.143Z,36.60
2018-06-30T19:30:55.795Z,37.20
2018-06-30T19:33:24.353Z,37.30
2018-06-30T19:35:52.798Z,37.20
2018-06-30T19:38:21.246Z,37.90
2018-06-30T19:40:49.817Z,38.50
2018-06-30T19:43:18.393Z,39.40
2018-06-30T19:45:46.818Z,37.90
2018-06-30T19:48:15.259Z,40.30
2018-06-30T19:50:43.763Z,40.00
2018-06-30T19:53:12.483Z,40.20
2018-06-30T19:55:40.930Z,41.40
2018-06-30T19:58:09.467Z,42.30
2018-06-30T20:00:38.346Z,41.90
2018-06-30T20:03:06.826Z,43.50
2018-06-30T20:05:35.324Z,41.80
2018-06-30T20:08:04.161Z,44.50
2018-06-30T20:10:33.150Z,45.40
2018-06-30T20:13:01.636Z,46.20
2018-06-30T20:15:30.272Z,46.90
2018-06-30T20:17:58.968Z,47.80
2018-06-30T20:20:27.472Z,46.50
2018-06-30T20:22:55.911Z,46.80
2018-06-30T20:25:24.355Z,48.20
2018-06-30T20:27:52.852Z,45.90
2018-06-30T20:30:21.712Z,47.70
2018-06-30T20:32:50.428Z,47.60
2018-06-30T20:35:18.906Z,47.60
2018-06-30T20:37:47.406Z,47.80
2018-06-30T20:42:45.602Z,46.70
2018-06-30T20:45:14.611Z,47.70
2018-06-30T20:47:43.055Z,48.80
2018-06-30T20:50:11.759Z,48.20
2018-06-30T20:52:40.335Z,49.50
2018-06-30T20:55:08.821Z,49.40
2018-06-30T20:57:37.487Z,49.70
2018-06-30T21:00:06.496Z,47.60
2018-06-30T21:02:35.187Z,49.70
2018-06-30T21:05:03.874Z,50.20
2018-06-30T21:07:32.641Z,50.40
2018-06-30T21:10:01.620Z,49.10
2018-06-30T21:12:30.091Z,49.60
2018-06-30T21:14:58.550Z,50.80
2018-06-30T21:17:27.435Z,49.50
2018-06-30T21:19:55.925Z,49.70
2018-06-30T21:22:24.603Z,50.50
2018-06-30T21:24:55.859Z,49.10
2018-06-30T21:27:24.584Z,50.20
2018-06-30T21:29:53.068Z,51.00
2018-06-30T21:32:27.882Z,50.50
2018-06-30T21:34:56.362Z,51.30
2018-06-30T21:37:24.849Z,51.50
2018-06-30T21:39:53.766Z,52.30
2018-06-30T21:42:22.453Z,53.50
2018-06-30T21:44:50.946Z,55.50
2018-06-30T21:47:19.500Z,56.70
2018-06-30T21:49:48.422Z,56.80
2018-06-30T21:52:17.041Z,58.10
2018-06-30T21:54:45.552Z,64.10
2018-06-30T21:57:14.346Z,65.20
2018-06-30T21:59:42.857Z,66.50
2018-06-30T22:02:11.501Z,75.30
2018-06-30T22:04:39.959Z,73.50
2018-06-30T22:07:08.417Z,80.30
2018-06-30T22:09:36.924Z,81.60
2018-06-30T22:12:05.614Z,87.90
2018-06-30T22:14:34.169Z,85.10
2018-06-30T22:17:02.698Z,94.90
2018-06-30T22:19:31.254Z,93.40
2018-06-30T22:21:59.831Z,75.30
2018-06-30T22:24:28.320Z,74.00
2018-06-30T22:26:56.766Z,81.20
2018-06-30T22:29:25.214Z,69.30
2018-06-30T22:31:53.785Z,65.30
2018-06-30T22:34:22.333Z,61.20
2018-06-30T22:36:50.813Z,50.10
2018-06-30T22:39:30.355Z,47.80
2018-06-30T22:41:58.935Z,47.40
2018-06-30T22:44:27.373Z,46.80
2018-06-30T22:46:55.844Z,46.70
2018-06-30T22:49:24.285Z,48.40
2018-06-30T22:51:52.718Z,48.60
2018-06-30T22:54:21.325Z,52.10
2018-06-30T22:56:49.899Z,49.10
2018-06-30T22:59:18.399Z,51.90
2018-06-30T23:01:46.834Z,53.30
2018-06-30T23:04:15.288Z,50.20
2018-06-30T23:06:43.850Z,48.90
2018-06-30T23:09:12.373Z,48.30
2018-06-30T23:11:40.798Z,49.40
2018-06-30T23:14:09.252Z,47.80
2018-06-30T23:16:37.989Z,47.30
2018-06-30T23:19:06.504Z,46.50
2018-06-30T23:21:34.971Z,46.50
2018-06-30T23:24:03.423Z,48.30
2018-06-30T23:26:31.913Z,48.70
2018-06-30T23:29:00.654Z,50.50
2018-06-30T23:31:29.107Z,46.30
2018-06-30T23:33:57.903Z,47.40
2018-06-30T23:36:26.745Z,48.40
2018-06-30T23:38:55.171Z,47.30
2018-06-30T23:41:23.662Z,47.20
2018-06-30T23:43:52.316Z,49.20
2018-06-30T23:46:20.788Z,52.50
2018-06-30T23:48:49.465Z,51.90
2018-06-30T23:51:18.142Z,48.50
2018-06-30T23:53:46.584Z,48.40
2018-06-30T23:56:15.219Z,48.90
2018-06-30T23:58:43.963Z,48.40
